Time;durP1;ratioP1;P1;durP2;ratioP2;P2;SDS_P1;SDS_P2;PMS_P1;PMS_P2;Temp;Humidity;BMP_temperature;BMP_pressure;BME280_temperature;BME280_humidity;BME280_pressure;Samples;Min_cycle;Max_cycle;Signal;HPM_P1;HPM_P2
2023/10/11 00:00:38;;;;;;;13.65;8.13;;;17.10;99.90;;;;;;5017264;28;20053;-78
2023/10/11 00:03:17;;;;;;;13.02;7.68;;;17.10;99.90;;;;;;5017126;28;20084;-78
2023/10/11 00:05:45;;;;;;;16.23;8.52;;;17.10;99.90;;;;;;5016841;28;20053;-77
2023/10/11 00:08:18;;;;;;;;;;;17.10;99.90;;;;;;5016471;28;20049;-78
2023/10/11 00:10:55;;;;;;;13.55;7.53;;;17.10;99.90;;;;;;5018918;28;19955;-77
2023/10/11 00:13:23;;;;;;;13.15;8.40;;;17.10;99.90;;;;;;5017783;28;20050;-77
2023/10/11 00:15:50;;;;;;;;;;;17.10;99.90;;;;;;5039973;28;20496;-77
2023/10/11 00:18:24;;;;;;;11.18;8.05;;;17.00;99.90;;;;;;5038151;28;20324;-78
2023/10/11 00:20:51;;;;;;;12.18;8.45;;;17.00;99.90;;;;;;5010478;28;20736;-78
2023/10/11 00:23:20;;;;;;;12.88;7.78;;;17.00;99.90;;;;;;5034240;28;20046;-77
2023/10/11 00:25:49;;;;;;;15.13;8.55;;;17.00;99.90;;;;;;5009271;28;20033;-77
2023/10/11 00:28:14;;;;;;;12.52;8.35;;;17.00;99.90;;;;;;5019751;28;20037;-77
2023/10/11 00:30:40;;;;;;;15.15;8.63;;;16.90;99.90;;;;;;5011869;28;20049;-79
2023/10/11 00:33:10;;;;;;;14.23;8.75;;;16.90;99.90;;;;;;5019458;28;20057;-78
2023/10/11 00:35:52;;;;;;;13.95;8.82;;;16.90;99.90;;;;;;5030453;28;20045;-78
2023/10/11 00:38:29;;;;;;;12.45;8.38;;;17.00;99.90;;;;;;5019850;28;20061;-79
2023/10/11 00:41:12;;;;;;;;;;;16.90;99.90;;;;;;5019635;28;20148;-79
2023/10/11 00:43:46;;;;;;;14.52;9.63;;;16.90;99.90;;;;;;5018417;28;19922;-79
2023/10/11 00:46:14;;;;;;;14.50;9.02;;;16.90;99.90;;;;;;5017585;28;20042;-80
2023/10/11 00:48:51;;;;;;;;;;;16.90;99.90;;;;;;5015091;28;20046;-78
2023/10/11 00:51:31;;;;;;;14.55;8.95;;;16.90;99.90;;;;;;5015307;28;19921;-79
2023/10/11 00:54:00;;;;;;;12.52;9.00;;;16.90;99.90;;;;;;5017226;28;20045;-78
2023/10/11 00:56:34;;;;;;;14.07;9.32;;;16.90;99.90;;;;;;5019114;28;20425;-78
2023/10/11 00:59:03;;;;;;;16.52;9.32;;;16.90;99.90;;;;;;5021614;28;20037;-78
2023/10/11 01:01:29;;;;;;;14.38;9.80;;;16.80;99.90;;;;;;5019794;28;20053;-78
2023/10/11 01:03:55;;;;;;;13.63;9.20;;;16.80;99.90;;;;;;5014675;28;20053;-78
2023/10/11 01:06:25;;;;;;;17.20;9.77;;;16.80;99.90;;;;;;5022466;28;20049;-77
2023/10/11 01:08:52;;;;;;;15.65;10.00;;;16.80;99.90;;;;;;5016407;28;20057;-78
2023/10/11 01:11:18;;;;;;;13.85;10.27;;;16.80;99.90;;;;;;5017955;28;20045;-79
2023/10/11 01:13:50;;;;;;;14.30;9.85;;;16.80;99.90;;;;;;5021745;28;20088;-79
2023/10/11 01:16:17;;;;;;;15.10;9.70;;;16.80;99.90;;;;;;5017540;28;20050;-79
2023/10/11 01:18:43;;;;;;;17.40;9.57;;;16.80;99.90;;;;;;5012834;28;20088;-79
2023/10/11 01:21:12;;;;;;;19.00;10.00;;;16.80;99.90;;;;;;5016462;28;20500;-78
2023/10/11 01:23:38;;;;;;;17.38;9.73;;;16.80;99.90;;;;;;5018518;28;20053;-78
2023/10/11 01:26:08;;;;;;;15.02;9.70;;;16.80;99.90;;;;;;5025435;28;20049;-78
2023/10/11 01:28:35;;;;;;;14.27;9.20;;;16.80;99.90;;;;;;5019912;28;20052;-78
2023/10/11 01:31:08;;;;;;;16.23;9.82;;;16.70;99.90;;;;;;5012572;28;20052;-78
2023/10/11 01:33:35;;;;;;;14.75;9.60;;;16.70;99.90;;;;;;5024072;28;20183;-78
2023/10/11 01:36:06;;;;;;;15.45;9.75;;;16.70;99.90;;;;;;5018369;28;20102;-78
2023/10/11 01:38:33;;;;;;;15.00;10.02;;;16.70;99.90;;;;;;5015780;28;20079;-78
2023/10/11 01:40:59;;;;;;;12.98;10.15;;;16.70;99.90;;;;;;5022661;28;20049;-78
2023/10/11 01:43:25;;;;;;;13.93;10.15;;;16.70;99.90;;;;;;5019704;28;20060;-78
2023/10/11 01:45:51;;;;;;;15.35;10.10;;;16.70;99.90;;;;;;5013731;28;20042;-79
2023/10/11 01:48:17;;;;;;;11.80;9.55;;;16.70;99.90;;;;;;5021269;28;20046;-78
2023/10/11 01:50:45;;;;;;;14.63;9.95;;;16.70;99.90;;;;;;5019092;28;20054;-79
2023/10/11 01:53:12;;;;;;;13.52;10.32;;;16.70;99.90;;;;;;5025461;28;20054;-78
2023/10/11 01:55:39;;;;;;;17.33;9.63;;;16.70;99.90;;;;;;5019064;28;20045;-78
2023/10/11 01:58:06;;;;;;;14.25;9.90;;;16.70;99.90;;;;;;5016056;28;20517;-78
2023/10/11 02:00:33;;;;;;;14.18;9.60;;;16.70;99.90;;;;;;5020425;28;20057;-78
2023/10/11 02:02:59;;;;;;;13.80;10.57;;;16.70;99.90;;;;;;5021761;28;20409;-78
2023/10/11 02:05:25;;;;;;;17.55;9.75;;;16.70;99.90;;;;;;5025374;28;20308;-78
2023/10/11 02:07:51;;;;;;;12.20;9.40;;;16.70;99.90;;;;;;5018080;28;20053;-78
2023/10/11 02:10:27;;;;;;;15.45;10.00;;;16.60;99.90;;;;;;5023365;28;20057;-78
2023/10/11 02:12:56;;;;;;;14.15;9.38;;;16.60;99.90;;;;;;5020743;28;20135;-78
2023/10/11 02:15:29;;;;;;;13.65;10.40;;;16.60;99.90;;;;;;5020695;28;20047;-78
2023/10/11 02:17:56;;;;;;;12.80;9.75;;;16.60;99.90;;;;;;5016243;28;20550;-78
2023/10/11 02:20:22;;;;;;;13.20;9.68;;;16.60;99.90;;;;;;5012295;28;20084;-78
2023/10/11 02:22:59;;;;;;;16.67;10.60;;;16.60;99.90;;;;;;5018454;28;20661;-79
2023/10/11 02:25:25;;;;;;;13.88;10.25;;;16.50;99.90;;;;;;5006722;28;20060;-78
2023/10/11 02:27:52;;;;;;;17.30;10.27;;;16.50;99.90;;;;;;5010974;28;20050;-78
2023/10/11 02:30:24;;;;;;;;;;;16.50;99.90;;;;;;5021133;28;20045;-77
2023/10/11 02:32:50;;;;;;;15.23;10.75;;;16.50;99.90;;;;;;5021718;28;19928;-80
2023/10/11 02:35:18;;;;;;;16.88;10.48;;;16.50;99.90;;;;;;5020056;28;20049;-79
2023/10/11 02:37:47;;;;;;;14.55;9.60;;;16.50;99.90;;;;;;5022752;28;20088;-77
2023/10/11 02:40:22;;;;;;;17.15;10.35;;;16.40;99.90;;;;;;5018781;28;20142;-77
2023/10/11 02:42:50;;;;;;;16.23;10.52;;;16.40;99.90;;;;;;5027116;28;20131;-77
2023/10/11 02:45:19;;;;;;;16.88;10.38;;;16.40;99.90;;;;;;5024131;28;20042;-79
2023/10/11 02:47:49;;;;;;;15.65;10.05;;;16.40;99.90;;;;;;5014402;28;20061;-79
2023/10/11 02:50:15;;;;;;;18.10;11.07;;;16.40;99.90;;;;;;5022266;28;20513;-79
2023/10/11 02:52:42;;;;;;;15.48;10.43;;;16.40;99.90;;;;;;5019312;28;20083;-79
2023/10/11 02:55:42;;;;;;;;;;;16.30;99.90;;;;;;5021364;28;20131;-79
2023/10/11 02:58:07;;;;;;;14.80;10.73;;;16.30;99.90;;;;;;5022956;28;19921;-79
2023/10/11 03:00:37;;;;;;;14.38;10.15;;;16.30;99.90;;;;;;5023769;28;20048;-79
2023/10/11 03:03:08;;;;;;;16.27;10.13;;;16.30;99.90;;;;;;5018053;28;20045;-80
2023/10/11 03:05:37;;;;;;;14.20;10.07;;;16.20;99.90;;;;;;5022135;28;20408;-80
2023/10/11 03:08:17;;;;;;;16.38;10.48;;;16.30;99.90;;;;;;5016045;28;20045;-78
2023/10/11 03:10:44;;;;;;;14.30;10.32;;;16.30;99.90;;;;;;5018745;28;20045;-79
2023/10/11 03:13:19;;;;;;;13.88;9.73;;;16.30;99.90;;;;;;5021836;28;20048;-79
2023/10/11 03:15:54;;;;;;;15.38;10.15;;;16.20;99.90;;;;;;5019591;28;20049;-79
2023/10/11 03:18:25;;;;;;;16.08;10.23;;;16.20;99.90;;;;;;5015028;28;20464;-79
2023/10/11 03:21:16;;;;;;;16.90;9.82;;;16.20;99.90;;;;;;5013780;28;20492;-79
2023/10/11 03:23:45;;;;;;;15.45;10.13;;;16.20;99.90;;;;;;5024454;28;20091;-78
2023/10/11 03:26:17;;;;;;;15.85;10.18;;;16.20;99.90;;;;;;5017935;28;20553;-78
2023/10/11 03:28:58;;;;;;;13.82;9.63;;;16.20;99.90;;;;;;5017821;28;20245;-79
2023/10/11 03:31:29;;;;;;;15.43;11.23;;;16.20;99.90;;;;;;5015944;28;20564;-76
2023/10/11 03:34:11;;;;;;;15.75;10.02;;;16.10;99.90;;;;;;5019723;28;20038;-78
2023/10/11 03:36:51;;;;;;;17.02;10.95;;;16.10;99.90;;;;;;5014154;28;20131;-78
2023/10/11 03:39:31;;;;;;;16.90;10.55;;;16.10;99.90;;;;;;5024802;28;20053;-78
2023/10/11 03:44:48;;;;;;;15.93;10.38;;;16.10;99.90;;;;;;5016332;28;20053;-79
2023/10/11 03:47:14;;;;;;;14.75;9.93;;;16.10;99.90;;;;;;5019276;28;20473;-79
2023/10/11 03:52:22;;;;;;;15.02;9.68;;;16.00;99.90;;;;;;5020323;28;20042;-79
2023/10/11 03:55:33;;;;;;;14.18;9.73;;;16.00;99.90;;;;;;5023645;28;20499;-79
2023/10/11 03:57:44;;;;;;;14.57;9.43;;;16.00;99.90;;;;;;5012342;28;20144;-78
2023/10/11 04:02:56;;;;;;;18.40;10.00;;;16.00;99.90;;;;;;5021829;28;20072;-78
2023/10/11 04:05:23;;;;;;;14.57;8.75;;;15.90;99.90;;;;;;5022895;28;20049;-78
2023/10/11 04:07:48;;;;;;;13.18;9.60;;;15.90;99.90;;;;;;5017647;28;20049;-79
2023/10/11 04:10:20;;;;;;;17.25;9.63;;;15.90;99.90;;;;;;5016829;28;20117;-79
2023/10/11 04:12:47;;;;;;;15.20;9.90;;;15.90;99.90;;;;;;5020728;28;20046;-78
2023/10/11 04:15:24;;;;;;;16.00;9.38;;;15.90;99.90;;;;;;5020713;28;20033;-78
2023/10/11 04:17:55;;;;;;;16.73;9.60;;;15.90;99.90;;;;;;5014160;28;20804;-78
2023/10/11 04:20:32;;;;;;;12.13;9.15;;;15.90;99.90;;;;;;5020606;28;20045;-78
2023/10/11 04:23:10;;;;;;;;;;;15.80;99.90;;;;;;5018974;28;20049;-77
2023/10/11 04:25:37;;;;;;;15.82;9.55;;;15.80;99.90;;;;;;5021726;28;19925;-78
2023/10/11 04:28:05;;;;;;;14.40;9.27;;;15.80;99.90;;;;;;5025915;28;20045;-78
2023/10/11 04:30:41;;;;;;;14.30;9.23;;;15.80;99.90;;;;;;5015645;28;20046;-78
2023/10/11 04:33:20;;;;;;;16.73;9.83;;;15.80;99.90;;;;;;5014390;28;20152;-78
2023/10/11 04:35:55;;;;;;;14.43;9.45;;;15.80;99.90;;;;;;5020669;28;20450;-78
2023/10/11 04:38:21;;;;;;;15.48;9.10;;;15.90;99.90;;;;;;5016024;28;20075;-78
2023/10/11 04:40:54;;;;;;;14.07;9.13;;;15.80;99.90;;;;;;5019730;28;20057;-79
2023/10/11 04:43:26;;;;;;;17.90;10.63;;;15.90;99.90;;;;;;5018110;28;20047;-79
2023/10/11 04:45:59;;;;;;;16.25;8.90;;;15.90;99.90;;;;;;5021017;28;20543;-79
2023/10/11 04:48:29;;;;;;;16.15;10.20;;;15.90;99.90;;;;;;5035017;28;20631;-79
2023/10/11 04:51:04;;;;;;;13.85;9.82;;;15.90;99.90;;;;;;5020241;28;20050;-79
2023/10/11 04:53:34;;;;;;;15.85;9.82;;;15.90;99.90;;;;;;5019985;28;20077;-80
2023/10/11 04:56:09;;;;;;;16.15;10.15;;;15.80;99.90;;;;;;5014527;28;20058;-79
2023/10/11 04:58:51;;;;;;;15.38;10.13;;;15.90;99.90;;;;;;5023275;28;20068;-80
2023/10/11 05:01:22;;;;;;;17.42;9.75;;;15.90;99.90;;;;;;5016826;28;20132;-79
2023/10/11 05:04:00;;;;;;;14.55;10.60;;;15.90;99.90;;;;;;5025746;28;20545;-79
2023/10/11 05:06:40;;;;;;;14.45;9.80;;;15.90;99.90;;;;;;5016743;28;20485;-79
2023/10/11 05:11:58;;;;;;;17.17;10.75;;;15.90;99.90;;;;;;5019222;28;20547;-79
2023/10/11 05:14:28;;;;;;;17.05;9.85;;;15.90;99.90;;;;;;5021996;28;20124;-79
2023/10/11 05:17:32;;;;;;;15.30;10.30;;;15.90;99.90;;;;;;5010061;28;20069;-79
2023/10/11 05:28:07;;;;;;;14.70;10.50;;;15.80;99.90;;;;;;5014554;28;20102;-79
2023/10/11 05:30:37;;;;;;;17.20;11.20;;;15.80;99.90;;;;;;5014340;28;20064;-79
2023/10/11 05:52:14;;;;;;;19.42;12.20;;;15.90;99.90;;;;;;5032388;28;20084;-79
2023/10/11 05:54:45;;;;;;;16.70;11.98;;;15.90;99.90;;;;;;5018251;28;20077;-79
2023/10/11 05:57:13;;;;;;;17.98;12.00;;;15.90;99.90;;;;;;5016624;28;20104;-78
2023/10/11 05:59:42;;;;;;;17.40;11.10;;;15.80;99.90;;;;;;5020913;28;20411;-80
2023/10/11 06:02:13;;;;;;;18.73;12.40;;;15.80;99.90;;;;;;5016928;28;20049;-74
2023/10/11 06:04:42;;;;;;;18.73;11.90;;;15.80;99.90;;;;;;5020252;28;20620;-74
2023/10/11 06:07:13;;;;;;;20.00;12.48;;;15.80;99.90;;;;;;5021511;28;20045;-76
2023/10/11 06:09:52;;;;;;;16.23;12.13;;;15.80;99.90;;;;;;5027158;28;20037;-80
2023/10/11 06:12:29;;;;;;;19.15;12.75;;;15.80;99.90;;;;;;5027986;28;20840;-80
2023/10/11 06:14:56;;;;;;;18.45;12.30;;;15.70;99.90;;;;;;5014134;28;20056;-80
2023/10/11 06:17:41;;;;;;;18.95;13.10;;;15.80;99.90;;;;;;5025516;28;20053;-80
2023/10/11 06:20:23;;;;;;;16.95;13.07;;;15.80;99.90;;;;;;5026955;28;20420;-76
2023/10/11 06:22:49;;;;;;;18.85;12.63;;;15.70;99.90;;;;;;5025723;28;20063;-72
2023/10/11 06:25:22;;;;;;;18.77;13.67;;;15.70;99.90;;;;;;5025165;28;20397;-73
2023/10/11 06:30:25;;;;;;;19.75;13.52;;;15.80;99.90;;;;;;5023221;28;20064;-76
2023/10/11 06:32:52;;;;;;;17.15;13.68;;;15.80;99.90;;;;;;5029914;28;20476;-76
2023/10/11 06:35:24;;;;;;;20.13;13.85;;;15.80;99.90;;;;;;5026632;28;20041;-75
2023/10/11 06:37:56;;;;;;;19.48;13.18;;;15.80;99.90;;;;;;5020850;28;20057;-76
2023/10/11 06:41:36;;;;;;;19.02;13.25;;;15.80;99.90;;;;;;5024041;28;20060;-76
2023/10/11 06:43:11;;;;;;;17.75;13.25;;;15.80;99.90;;;;;;5024061;28;20049;-76
2023/10/11 06:45:39;;;;;;;18.77;13.68;;;15.80;99.90;;;;;;5016554;28;20057;-76
2023/10/11 06:48:09;;;;;;;19.40;13.30;;;15.80;99.90;;;;;;5020737;28;20144;-75
2023/10/11 06:50:38;;;;;;;18.13;13.07;;;15.90;99.90;;;;;;5021368;28;20409;-76
2023/10/11 06:53:08;;;;;;;20.13;14.48;;;15.90;99.90;;;;;;5024778;28;20038;-76
2023/10/11 06:55:36;;;;;;;20.95;14.15;;;15.90;99.90;;;;;;5023716;28;20057;-75
2023/10/11 06:58:09;;;;;;;;;;;15.90;99.90;;;;;;5019885;28;20465;-76
2023/10/11 07:00:45;;;;;;;21.65;14.07;;;15.90;99.90;;;;;;5029934;28;20082;-76
2023/10/11 07:03:26;;;;;;;17.60;13.57;;;15.90;99.90;;;;;;5023830;28;20045;-75
2023/10/11 07:06:10;;;;;;;21.35;14.32;;;15.90;99.90;;;;;;5023713;28;20544;-76
2023/10/11 07:08:36;;;;;;;20.52;14.00;;;15.90;99.90;;;;;;5025496;28;20045;-74
2023/10/11 07:16:37;;;;;;;19.23;13.95;;;16.00;99.90;;;;;;4978083;28;20050;-78
2023/10/11 07:19:02;;;;;;;22.25;14.70;;;16.00;99.90;;;;;;4978595;28;20596;-76
2023/10/11 07:24:31;;;;;;;22.70;15.77;;;16.00;99.90;;;;;;5014436;28;20140;-73
2023/10/11 07:27:12;;;;;;;21.20;15.27;;;16.10;99.90;;;;;;5021590;28;20481;-74
2023/10/11 07:29:45;;;;;;;22.63;16.10;;;16.10;99.90;;;;;;5022257;28;20085;-75
2023/10/11 07:32:11;;;;;;;23.85;16.00;;;16.10;99.90;;;;;;5013343;28;20045;-78
2023/10/11 07:34:39;;;;;;;20.65;15.25;;;16.10;99.90;;;;;;5011928;28;20054;-80
2023/10/11 07:37:05;;;;;;;21.88;16.20;;;16.10;99.90;;;;;;5009697;28;20576;-80
2023/10/11 07:39:35;;;;;;;22.77;16.42;;;16.10;99.90;;;;;;5016360;28;20541;-79
2023/10/11 07:42:08;;;;;;;21.58;16.30;;;16.10;99.90;;;;;;5010382;28;20128;-80
2023/10/11 07:44:36;;;;;;;23.05;16.30;;;16.20;99.90;;;;;;5009825;28;20125;-80
2023/10/11 07:47:04;;;;;;;22.85;17.15;;;16.20;99.90;;;;;;5014812;28;20037;-80
2023/10/11 07:49:37;;;;;;;24.77;17.48;;;16.10;99.90;;;;;;5020763;28;20038;-80
2023/10/11 07:52:08;;;;;;;23.75;17.38;;;16.20;99.90;;;;;;5012635;28;20053;-80
2023/10/11 07:54:35;;;;;;;23.27;17.50;;;16.20;99.90;;;;;;5020286;28;20457;-79
2023/10/11 07:57:02;;;;;;;24.30;18.10;;;16.30;99.90;;;;;;5013803;28;20519;-78
2023/10/11 07:59:28;;;;;;;23.27;17.63;;;16.30;99.90;;;;;;5024210;28;20569;-77
2023/10/11 08:02:08;;;;;;;26.67;18.40;;;16.20;99.90;;;;;;5017854;28;20081;-74
2023/10/11 08:04:46;;;;;;;27.00;18.27;;;16.30;99.90;;;;;;5020684;28;20077;-76
2023/10/11 08:07:16;;;;;;;27.92;19.30;;;16.40;99.90;;;;;;5025235;28;20411;-82
2023/10/11 08:09:52;;;;;;;27.95;19.70;;;16.40;99.90;;;;;;5023216;28;20069;-76
2023/10/11 08:12:21;;;;;;;25.48;20.00;;;16.40;99.90;;;;;;5020539;28;20037;-75
2023/10/11 08:14:47;;;;;;;25.70;19.95;;;16.40;99.90;;;;;;5018733;28;20061;-77
2023/10/11 08:17:14;;;;;;;27.63;20.13;;;16.40;99.90;;;;;;5007720;28;20115;-77
2023/10/11 08:19:44;;;;;;;27.02;20.30;;;16.50;99.90;;;;;;5015845;28;20156;-81
2023/10/11 08:22:14;;;;;;;28.27;21.27;;;16.50;99.90;;;;;;5017546;28;20064;-81
2023/10/11 08:24:46;;;;;;;29.73;21.05;;;16.50;99.90;;;;;;5019156;28;20116;-80
2023/10/11 08:27:13;;;;;;;31.05;21.83;;;16.50;99.90;;;;;;5024558;28;20129;-81
2023/10/11 08:29:42;;;;;;;31.42;22.08;;;16.50;99.90;;;;;;5018070;28;20034;-78
2023/10/11 08:32:13;;;;;;;28.25;21.13;;;16.60;99.90;;;;;;5006875;28;20046;-78
2023/10/11 08:34:46;;;;;;;33.97;22.88;;;16.60;99.90;;;;;;5010081;28;20073;-81
2023/10/11 08:37:15;;;;;;;33.05;22.65;;;16.60;99.90;;;;;;5009465;28;20137;-81
2023/10/11 08:39:47;;;;;;;33.20;24.00;;;16.60;99.90;;;;;;5009204;28;20121;-79
2023/10/11 08:42:16;;;;;;;29.77;23.40;;;16.60;99.90;;;;;;5010054;28;20080;-82
2023/10/11 08:44:46;;;;;;;33.72;24.15;;;16.60;99.90;;;;;;5018313;28;20042;-82
2023/10/11 08:47:13;;;;;;;33.42;26.10;;;16.60;99.90;;;;;;5017446;28;20044;-80
2023/10/11 08:49:48;;;;;;;37.97;25.88;;;16.60;99.90;;;;;;5009038;28;20614;-83
2023/10/11 08:52:21;;;;;;;36.95;25.70;;;16.60;99.90;;;;;;5020513;28;20508;-82
2023/10/11 08:54:48;;;;;;;34.60;26.05;;;16.60;99.90;;;;;;5009809;28;20397;-82
2023/10/11 08:57:14;;;;;;;36.63;26.98;;;16.70;99.90;;;;;;5018881;28;20199;-83
2023/10/11 08:59:58;;;;;;;37.78;26.90;;;16.70;99.90;;;;;;5018858;28;20546;-84
2023/10/11 09:02:26;;;;;;;35.88;26.67;;;16.70;99.90;;;;;;5022162;28;20076;-82
2023/10/11 09:04:59;;;;;;;42.95;29.13;;;16.70;99.90;;;;;;5011061;28;20484;-83
2023/10/11 09:07:45;;;;;;;39.47;27.75;;;16.70;99.90;;;;;;5010581;28;20045;-83
2023/10/11 09:10:27;;;;;;;42.58;27.35;;;16.70;99.90;;;;;;5015023;28;20046;-82
2023/10/11 09:12:58;;;;;;;40.60;28.63;;;16.70;99.90;;;;;;5020328;28;20107;-82
2023/10/11 09:15:40;;;;;;;39.85;28.05;;;16.70;99.90;;;;;;5019330;28;20045;-78
2023/10/11 09:18:34;;;;;;;41.15;28.85;;;16.70;99.90;;;;;;5017515;28;20128;-84
2023/10/11 09:21:09;;;;;;;43.08;28.95;;;16.70;99.90;;;;;;5008395;28;20053;-81
2023/10/11 09:23:37;;;;;;;42.38;30.58;;;16.70;99.90;;;;;;5011580;28;20501;-78
2023/10/11 09:26:05;;;;;;;44.67;29.75;;;16.70;99.90;;;;;;5024315;28;20404;-76
2023/10/11 09:28:34;;;;;;;41.30;29.70;;;16.70;99.90;;;;;;5011344;28;20489;-79
2023/10/11 09:31:14;;;;;;;43.38;31.20;;;16.70;99.90;;;;;;5011220;28;20049;-79
2023/10/11 09:33:45;;;;;;;45.88;30.80;;;16.70;99.90;;;;;;5012648;28;20054;-83
2023/10/11 09:36:12;;;;;;;38.65;28.58;;;16.70;99.90;;;;;;5017508;28;20040;-81
2023/10/11 09:38:41;;;;;;;40.00;30.10;;;16.70;99.90;;;;;;5027152;28;20060;-83
2023/10/11 09:41:11;;;;;;;46.55;31.25;;;16.70;99.90;;;;;;5024112;28;20045;-83
2023/10/11 09:43:43;;;;;;;44.78;31.65;;;16.70;99.90;;;;;;5018965;28;20053;-85
2023/10/11 09:46:11;;;;;;;43.45;30.33;;;16.70;99.90;;;;;;5018129;28;20065;-80
2023/10/11 09:48:41;;;;;;;42.92;31.38;;;16.70;99.90;;;;;;5024009;28;20061;-79
2023/10/11 09:51:09;;;;;;;42.70;30.95;;;16.70;99.90;;;;;;5022479;28;20136;-92
2023/10/11 09:53:41;;;;;;;43.17;30.48;;;16.70;99.90;;;;;;5018836;28;20562;-81
2023/10/11 09:56:30;;;;;;;42.25;29.45;;;16.70;99.90;;;;;;5023217;28;20046;-79
2023/10/11 09:59:23;;;;;;;44.95;30.52;;;16.70;99.90;;;;;;5015624;28;20041;-81
2023/10/11 10:01:55;;;;;;;42.17;30.08;;;16.70;99.90;;;;;;5024432;28;20052;-80
2023/10/11 10:04:50;;;;;;;45.40;31.55;;;16.70;99.90;;;;;;5020228;28;20049;-80
2023/10/11 10:07:24;;;;;;;44.67;33.28;;;16.70;99.90;;;;;;5017356;28;20396;-79
2023/10/11 10:10:00;;;;;;;49.35;32.88;;;16.70;99.90;;;;;;5051961;28;20407;-80
2023/10/11 10:12:40;;;;;;;45.38;33.08;;;16.70;99.90;;;;;;5023715;28;20060;-74
2023/10/11 10:15:14;;;;;;;43.03;31.75;;;16.70;99.90;;;;;;5026995;28;20037;-76
2023/10/11 10:18:05;;;;;;;43.92;32.13;;;16.70;99.90;;;;;;5024331;28;20535;-78
2023/10/11 10:20:34;;;;;;;43.47;32.03;;;16.70;99.90;;;;;;5016951;28;20511;-76
2023/10/11 10:23:15;;;;;;;46.13;32.67;;;16.70;99.90;;;;;;5018530;28;20053;-76
2023/10/11 10:26:13;;;;;;;46.20;33.22;;;16.70;99.90;;;;;;5014657;28;20042;-75
2023/10/11 10:28:39;;;;;;;43.13;32.15;;;16.70;99.90;;;;;;5024046;28;20049;-78
2023/10/11 10:31:12;;;;;;;44.05;32.72;;;16.70;99.90;;;;;;5025307;28;20095;-78
2023/10/11 10:33:38;;;;;;;43.55;32.97;;;16.70;99.90;;;;;;5027616;28;20048;-84
2023/10/11 10:36:28;;;;;;;43.73;31.23;;;16.70;99.90;;;;;;5025673;28;20029;-85
2023/10/11 10:39:00;;;;;;;46.55;32.88;;;16.70;99.90;;;;;;5020857;28;20053;-83
2023/10/11 10:41:36;;;;;;;44.65;32.63;;;16.70;99.90;;;;;;5014706;28;20092;-82
2023/10/11 10:44:11;;;;;;;47.03;33.90;;;16.70;99.90;;;;;;5018913;28;20057;-85
2023/10/11 10:46:54;;;;;;;43.92;33.13;;;16.80;99.90;;;;;;5011086;28;20063;-87
2023/10/11 10:49:30;;;;;;;45.17;33.88;;;16.80;99.90;;;;;;5013884;28;20041;-82
2023/10/11 10:51:57;;;;;;;43.53;32.97;;;16.80;99.90;;;;;;5018724;28;20049;-79
2023/10/11 10:54:23;;;;;;;42.67;32.10;;;16.80;99.90;;;;;;5018224;28;20507;-82
2023/10/11 10:56:58;;;;;;;42.28;32.10;;;16.90;99.90;;;;;;5022863;28;20053;-84
2023/10/11 10:59:25;;;;;;;41.92;30.75;;;17.00;99.90;;;;;;5023684;28;20123;-88
2023/10/11 11:01:52;;;;;;;40.42;29.75;;;17.10;99.90;;;;;;5027292;28;20050;-81
2023/10/11 11:04:24;;;;;;;40.25;28.48;;;17.20;99.90;;;;;;5025749;28;20064;-82
2023/10/11 11:06:52;;;;;;;40.35;29.90;;;17.30;99.90;;;;;;5012840;28;20046;-86
2023/10/11 11:09:25;;;;;;;39.67;28.58;;;17.30;99.90;;;;;;5018262;28;20046;-84
2023/10/11 11:11:58;;;;;;;35.60;27.38;;;17.40;99.90;;;;;;5017096;28;20397;-81
2023/10/11 11:14:25;;;;;;;37.55;27.55;;;17.50;99.90;;;;;;5019896;28;20077;-81
2023/10/11 11:16:55;;;;;;;35.53;27.83;;;17.50;99.90;;;;;;5015255;28;20053;-78
2023/10/11 11:19:25;;;;;;;34.35;26.90;;;17.60;99.90;;;;;;5020459;28;20073;-82
2023/10/11 11:22:38;;;;;;;34.63;27.42;;;17.60;99.90;;;;;;5018556;28;20481;-81
2023/10/11 11:25:16;;;;;;;36.67;25.38;;;17.60;99.90;;;;;;5007410;28;20065;-81
2023/10/11 11:27:43;;;;;;;35.40;25.85;;;17.70;99.90;;;;;;5009718;28;20072;-82
2023/10/11 11:30:16;;;;;;;34.00;25.05;;;17.70;99.90;;;;;;5016110;28;20485;-81
2023/10/11 11:32:42;;;;;;;32.80;24.75;;;17.80;99.90;;;;;;5026550;28;20114;-81
2023/10/11 11:38:06;;;;;;;30.75;24.08;;;17.90;99.90;;;;;;5020776;28;20437;-81
2023/10/11 11:40:46;;;;;;;32.55;24.13;;;17.90;99.90;;;;;;5011636;28;20060;-81
2023/10/11 11:43:13;;;;;;;31.70;22.10;;;17.90;99.90;;;;;;5021434;28;20043;-78
2023/10/11 11:45:38;;;;;;;32.45;22.52;;;18.00;99.90;;;;;;5025960;28;20068;-82
2023/10/11 11:48:05;;;;;;;31.38;22.38;;;18.00;99.90;;;;;;5021152;28;20532;-81
2023/10/11 11:50:37;;;;;;;31.80;21.55;;;18.10;99.90;;;;;;5021819;28;20052;-83
2023/10/11 11:53:04;;;;;;;27.63;21.58;;;18.20;99.90;;;;;;5012831;28;21675;-79
2023/10/11 11:55:32;;;;;;;24.48;19.08;;;18.20;99.90;;;;;;5019147;28;20056;-80
2023/10/11 11:57:58;;;;;;;26.52;20.10;;;18.20;99.90;;;;;;5017279;28;20121;-79
2023/10/11 12:02:53;;;;;;;26.48;19.55;;;18.20;99.90;;;;;;5017007;28;20493;-78
2023/10/11 12:05:20;;;;;;;29.13;19.38;;;18.20;99.90;;;;;;5018179;28;20042;-77
2023/10/11 12:07:47;;;;;;;25.00;18.48;;;18.20;99.90;;;;;;5026668;28;20045;-77
2023/10/11 12:10:25;;;;;;;27.80;18.95;;;18.10;99.90;;;;;;5020079;28;20045;-77
2023/10/11 12:12:52;;;;;;;28.02;19.17;;;18.10;99.90;;;;;;5019785;28;20038;-77
2023/10/11 12:15:18;;;;;;;25.45;18.40;;;18.10;99.90;;;;;;5021964;28;20072;-77
2023/10/11 12:17:46;;;;;;;28.77;19.45;;;18.10;99.90;;;;;;5019141;28;20058;-77
2023/10/11 12:20:12;;;;;;;28.73;19.77;;;18.10;99.90;;;;;;5025226;28;20033;-82
2023/10/11 12:22:48;;;;;;;32.58;19.52;;;18.20;99.90;;;;;;5017993;28;20050;-84
2023/10/11 12:25:14;;;;;;;27.50;19.38;;;18.20;99.90;;;;;;5017385;28;20148;-88
2023/10/11 12:27:43;;;;;;;26.88;19.40;;;18.20;99.90;;;;;;5025261;28;20658;-85
2023/10/11 12:30:19;;;;;;;29.77;18.00;;;18.20;99.90;;;;;;5020566;28;20046;-84
2023/10/11 12:32:49;;;;;;;25.73;17.90;;;18.30;99.90;;;;;;5019649;28;20575;-86
2023/10/11 12:35:16;;;;;;;25.40;18.40;;;18.30;99.90;;;;;;5018158;28;20056;-83
2023/10/11 12:37:42;;;;;;;27.55;18.75;;;18.30;99.90;;;;;;5020287;28;20061;-86
2023/10/11 12:40:21;;;;;;;23.92;17.63;;;18.40;99.90;;;;;;5013254;28;20049;-85
2023/10/11 12:42:48;;;;;;;26.05;17.20;;;18.40;99.90;;;;;;5021159;28;20049;-83
2023/10/11 12:45:16;;;;;;;23.07;17.97;;;18.50;99.90;;;;;;5013950;28;20042;-86
2023/10/11 12:47:43;;;;;;;27.95;16.55;;;18.50;99.90;;;;;;5016679;28;20104;-81
2023/10/11 12:50:09;;;;;;;25.10;15.60;;;18.50;99.90;;;;;;5022684;28;20053;-86
2023/10/11 12:52:37;;;;;;;25.20;15.43;;;18.60;99.90;;;;;;5014165;28;20140;-87
2023/10/11 12:55:07;;;;;;;21.83;15.73;;;18.70;99.90;;;;;;5026048;28;20052;-84
2023/10/11 12:57:38;;;;;;;22.85;14.35;;;18.90;99.90;;;;;;5024628;28;20140;-81
2023/10/11 13:00:29;;;;;;;22.17;13.82;;;19.00;99.90;;;;;;5012633;28;20111;-82
2023/10/11 13:06:03;;;;;;;22.73;13.10;;;19.30;99.90;;;;;;4998308;28;20046;-83
2023/10/11 13:08:30;;;;;;;18.35;11.18;;;19.30;99.90;;;;;;5006999;28;20394;-84
2023/10/11 13:10:56;;;;;;;;;;;19.30;99.90;;;;;;5014386;28;20045;-84
2023/10/11 13:13:22;;;;;;;18.33;12.30;;;19.40;99.90;;;;;;5008670;28;19928;-84
2023/10/11 13:15:58;;;;;;;20.08;12.60;;;19.40;99.90;;;;;;5021041;28;20556;-83
2023/10/11 13:18:29;;;;;;;17.50;11.35;;;19.40;99.90;;;;;;5008067;28;20061;-84
2023/10/11 13:20:56;;;;;;;19.50;11.88;;;19.40;99.90;;;;;;5006011;28;20130;-84
2023/10/11 13:23:29;;;;;;;18.85;11.23;;;19.50;99.90;;;;;;5021733;28;20033;-84
2023/10/11 13:26:07;;;;;;;19.48;11.73;;;19.60;99.90;;;;;;5016455;28;20052;-83
2023/10/11 13:28:34;;;;;;;16.27;11.07;;;19.60;99.90;;;;;;5016706;28;20140;-87
2023/10/11 13:31:02;;;;;;;16.08;10.38;;;19.60;99.90;;;;;;5018970;28;20034;-82
2023/10/11 13:33:35;;;;;;;16.92;10.93;;;19.50;99.90;;;;;;5019222;28;20129;-87
2023/10/11 13:36:05;;;;;;;16.05;11.27;;;19.50;99.90;;;;;;5016983;28;20046;-85
2023/10/11 13:38:31;;;;;;;19.90;11.05;;;19.40;99.90;;;;;;5012792;28;20145;-85
2023/10/11 13:41:00;;;;;;;16.40;10.07;;;19.40;99.90;;;;;;5018889;28;20355;-83
2023/10/11 13:43:26;;;;;;;19.77;11.95;;;19.40;99.90;;;;;;5008474;28;20058;-87
2023/10/11 13:46:01;;;;;;;20.70;13.05;;;19.30;99.90;;;;;;5022267;28;20084;-86
2023/10/11 13:48:36;;;;;;;19.27;13.82;;;19.30;99.90;;;;;;5021649;28;20128;-86
2023/10/11 13:51:03;;;;;;;21.50;13.60;;;19.30;99.90;;;;;;5018279;28;20045;-82
2023/10/11 13:53:30;;;;;;;21.77;12.25;;;19.40;99.90;;;;;;5027477;28;20111;-85